createdAt,value
2022-08-31T01:10:05.416Z,20.50
2022-08-31T01:12:32.667Z,19.50
2022-08-31T01:15:02.896Z,19.40
2022-08-31T01:17:32.841Z,19.50
2022-08-31T01:20:18.985Z,19.40
2022-08-31T01:23:09.693Z,19.20
2022-08-31T01:25:39.183Z,19.20
2022-08-31T01:28:08.505Z,19.20
2022-08-31T01:30:37.055Z,19.20
2022-08-31T01:33:04.956Z,19.20
2022-08-31T01:35:33.881Z,19.20
2022-08-31T01:38:01.510Z,19.20
2022-08-31T01:40:37.633Z,19.10
2022-08-31T01:43:04.508Z,19.10
2022-08-31T01:45:31.649Z,19.10
2022-08-31T01:47:59.489Z,19.10
2022-08-31T01:50:26.532Z,18.90
2022-08-31T01:52:53.423Z,19.00
2022-08-31T01:55:20.345Z,19.00
2022-08-31T01:57:47.163Z,18.90
2022-08-31T02:00:14.511Z,18.90
2022-08-31T02:02:42.004Z,18.80
2022-08-31T02:05:10.735Z,18.90
2022-08-31T02:07:37.544Z,18.80
2022-08-31T02:10:05.344Z,18.70
2022-08-31T02:12:32.220Z,18.80
2022-08-31T02:14:59.181Z,18.80
2022-08-31T02:17:26.038Z,18.70
2022-08-31T02:19:52.863Z,18.70
2022-08-31T02:22:19.681Z,18.80
2022-08-31T02:24:46.557Z,18.70
2022-08-31T02:27:13.602Z,18.80
2022-08-31T02:29:40.451Z,18.70
2022-08-31T02:32:07.421Z,18.70
2022-08-31T02:34:34.323Z,18.60
2022-08-31T02:37:01.158Z,18.70
2022-08-31T02:39:28.062Z,18.60
2022-08-31T02:41:54.964Z,18.70
2022-08-31T02:44:21.859Z,18.60
2022-08-31T02:46:48.734Z,18.60
2022-08-31T02:49:15.791Z,18.60
2022-08-31T02:51:43.739Z,18.60
2022-08-31T02:54:11.970Z,18.60
2022-08-31T02:56:39.079Z,18.50
2022-08-31T02:59:06.599Z,18.50
2022-08-31T03:01:33.716Z,18.50
2022-08-31T03:04:00.969Z,18.50
2022-08-31T03:06:29.735Z,18.50
2022-08-31T03:08:56.694Z,18.50
2022-08-31T03:11:23.527Z,18.40
2022-08-31T03:13:50.383Z,18.40
2022-08-31T03:16:17.420Z,18.30
2022-08-31T10:53:34.620Z,24.60
2022-08-31T10:56:41.252Z,25.00
2022-08-31T10:59:27.363Z,25.00
2022-08-31T11:02:18.226Z,24.70
2022-08-31T11:07:55.377Z,24.50
2022-08-31T11:10:49.980Z,24.20
2022-08-31T11:13:49.566Z,24.00
2022-08-31T11:16:35.193Z,23.80
2022-08-31T11:19:31.656Z,23.90
2022-08-31T11:22:10.625Z,23.90
2022-08-31T11:24:43.080Z,23.70
2022-08-31T11:27:36.998Z,24.20
2022-08-31T11:30:27.254Z,24.10
2022-08-31T11:36:07.329Z,25.40
2022-08-31T11:38:50.299Z,26.00
2022-08-31T11:41:46.843Z,26.40
2022-08-31T11:44:37.072Z,26.50
2022-08-31T11:47:29.226Z,27.20
2022-08-31T11:50:04.071Z,27.10
2022-08-31T11:52:48.278Z,27.20
2022-08-31T11:55:21.004Z,26.70
2022-08-31T11:58:11.720Z,25.70
2022-08-31T12:00:58.667Z,25.60
2022-08-31T12:04:03.528Z,25.20
2022-08-31T12:06:37.323Z,25.00
2022-08-31T12:09:15.927Z,25.10
2022-08-31T12:12:23.686Z,25.90
2022-08-31T12:14:59.651Z,26.50
2022-08-31T12:17:37.046Z,26.80
2022-08-31T12:21:08.694Z,26.40
2022-08-31T12:24:06.478Z,26.40
2022-08-31T12:26:51.576Z,25.90
2022-08-31T12:29:29.180Z,25.60
2022-08-31T12:32:21.458Z,25.80
2022-08-31T12:34:57.089Z,25.80
2022-08-31T12:37:25.627Z,25.90
2022-08-31T12:40:16.916Z,25.90
2022-08-31T12:42:52.948Z,26.20
2022-08-31T12:45:30.881Z,25.80
2022-08-31T12:48:25.700Z,25.50
2022-08-31T12:51:11.103Z,25.60
2022-08-31T12:53:43.891Z,26.00
2022-08-31T12:56:31.406Z,26.50
2022-08-31T12:59:21.792Z,27.20
2022-08-31T13:01:50.535Z,27.00
2022-08-31T13:04:20.079Z,27.40
2022-08-31T13:09:33.324Z,27.50
2022-08-31T13:12:02.157Z,27.80
2022-08-31T13:14:38.793Z,27.80
2022-08-31T13:17:15.282Z,28.10
2022-08-31T13:20:01.679Z,27.90
2022-08-31T13:22:42.788Z,28.40
2022-08-31T13:25:20.151Z,28.10
2022-08-31T13:27:50.865Z,28.10
2022-08-31T13:30:22.520Z,29.00
2022-08-31T13:32:54.703Z,29.20
2022-08-31T13:35:26.033Z,29.50
2022-08-31T13:38:05.685Z,28.60
2022-08-31T13:40:37.386Z,28.20
2022-08-31T13:43:07.759Z,27.30
2022-08-31T13:45:48.252Z,28.20
2022-08-31T13:48:29.589Z,28.20
2022-08-31T13:51:13.634Z,28.00
2022-08-31T13:53:42.928Z,29.00
2022-08-31T13:56:46.750Z,28.80
2022-08-31T13:59:25.337Z,29.20
2022-08-31T14:02:22.187Z,28.50
2022-08-31T14:04:57.666Z,29.30
2022-08-31T14:07:39.352Z,27.50
2022-08-31T14:10:30.761Z,27.10
2022-08-31T14:13:04.830Z,27.00
2022-08-31T14:15:42.066Z,28.10
2022-08-31T14:18:24.605Z,28.30
2022-08-31T14:21:24.161Z,28.10
2022-08-31T14:24:00.465Z,27.30
2022-08-31T14:26:29.759Z,27.20
2022-08-31T14:29:00.484Z,26.80
2022-08-31T14:31:37.388Z,26.80
2022-08-31T14:34:11.568Z,26.40
2022-08-31T14:36:53.019Z,26.10
2022-08-31T14:39:20.820Z,26.10
2022-08-31T14:41:47.885Z,26.20
2022-08-31T14:44:17.591Z,25.80
2022-08-31T14:46:44.534Z,26.10
2022-08-31T14:49:11.471Z,26.60
2022-08-31T14:51:39.167Z,26.20
2022-08-31T14:54:09.017Z,26.40
2022-08-31T14:56:45.292Z,26.10
2022-08-31T14:59:16.135Z,26.70
2022-08-31T15:01:44.854Z,26.90
2022-08-31T15:04:16.598Z,27.00
2022-08-31T15:06:48.056Z,27.50
2022-08-31T15:09:14.968Z,27.90
2022-08-31T15:11:43.755Z,27.70
2022-08-31T15:14:14.090Z,27.80
2022-08-31T15:16:44.355Z,27.70
2022-08-31T15:19:13.790Z,28.00
2022-08-31T15:21:52.253Z,28.10
2022-08-31T15:24:25.008Z,27.80
2022-08-31T15:26:55.030Z,27.90
2022-08-31T15:29:24.858Z,27.00
2022-08-31T15:31:54.900Z,27.30
2022-08-31T15:34:25.678Z,27.30
2022-08-31T15:36:57.589Z,26.70
2022-08-31T15:39:32.435Z,26.60
2022-08-31T15:42:00.254Z,26.10
2022-08-31T15:44:27.302Z,26.30
2022-08-31T15:47:12.947Z,26.30
2022-08-31T15:49:40.599Z,26.40
2022-08-31T15:52:11.174Z,26.40
2022-08-31T15:54:40.570Z,26.10
2022-08-31T15:57:08.837Z,25.80
2022-08-31T15:59:36.702Z,25.90
2022-08-31T16:02:05.734Z,26.60
2022-08-31T16:04:38.326Z,26.20
2022-08-31T16:07:09.208Z,26.40
2022-08-31T16:09:40.964Z,26.00
2022-08-31T16:12:12.334Z,26.20
2022-08-31T16:14:41.624Z,26.50
2022-08-31T16:17:09.504Z,26.20
2022-08-31T16:19:37.610Z,26.40
2022-08-31T16:22:06.182Z,26.30
2022-08-31T16:24:35.963Z,26.30
2022-08-31T16:27:06.441Z,26.50
2022-08-31T16:29:33.962Z,26.50
2022-08-31T16:32:01.645Z,26.20
2022-08-31T16:34:28.959Z,26.00
2022-08-31T16:36:57.127Z,25.90
2022-08-31T16:39:27.887Z,25.90
2022-08-31T16:41:55.137Z,25.90
2022-08-31T16:44:22.061Z,25.70
2022-08-31T16:46:49.565Z,25.70
2022-08-31T16:49:36.061Z,25.80
2022-08-31T16:52:12.597Z,25.90
2022-08-31T16:54:45.074Z,25.70
2022-08-31T16:57:15.091Z,25.60
2022-08-31T16:59:43.176Z,25.20
2022-08-31T17:02:12.721Z,25.20
2022-08-31T17:04:52.546Z,25.10
2022-08-31T17:07:21.303Z,25.10
2022-08-31T17:09:48.505Z,24.80
2022-08-31T17:12:19.251Z,24.90
2022-08-31T17:14:51.388Z,24.80
2022-08-31T17:19:47.607Z,24.80
2022-08-31T17:22:23.300Z,24.70
2022-08-31T17:24:52.235Z,24.50
2022-08-31T17:29:56.212Z,24.30
2022-08-31T17:32:26.327Z,24.20
2022-08-31T17:34:54.961Z,24.20
2022-08-31T17:37:26.555Z,24.20
2022-08-31T17:39:54.805Z,24.20
2022-08-31T17:42:23.074Z,24.10
2022-08-31T17:44:53.063Z,24.10
2022-08-31T17:47:21.473Z,23.80
2022-08-31T17:49:50.606Z,23.70
2022-08-31T17:52:20.544Z,24.00
2022-08-31T17:54:50.854Z,23.90
2022-08-31T17:57:22.291Z,23.70
2022-08-31T17:59:49.296Z,23.70
2022-08-31T18:02:25.432Z,23.70
2022-08-31T18:04:52.891Z,23.70
2022-08-31T18:07:20.242Z,23.60
2022-08-31T18:09:47.148Z,23.50
2022-08-31T18:12:16.457Z,23.50
2022-08-31T18:14:43.844Z,23.40
2022-08-31T18:17:16.296Z,23.40
2022-08-31T18:19:46.962Z,23.40
2022-08-31T18:22:14.612Z,23.50
2022-08-31T18:24:42.824Z,23.50
2022-08-31T18:27:11.903Z,23.20
2022-08-31T18:29:39.437Z,23.30
2022-08-31T18:32:08.142Z,23.20
2022-08-31T18:34:38.994Z,23.20
2022-08-31T18:37:06.719Z,23.10
2022-08-31T18:39:59.642Z,22.90
2022-08-31T18:42:46.715Z,23.10
2022-08-31T18:45:16.870Z,22.90
2022-08-31T18:47:56.906Z,22.80
2022-08-31T18:50:35.158Z,22.90
2022-08-31T18:53:10.763Z,22.90
2022-08-31T18:55:38.465Z,22.70
2022-08-31T18:58:05.351Z,22.70
2022-08-31T19:00:33.149Z,22.50
2022-08-31T19:03:02.304Z,22.60
2022-08-31T19:05:31.397Z,22.50
2022-08-31T19:08:00.365Z,22.40
2022-08-31T19:10:27.943Z,22.50
2022-08-31T19:12:57.809Z,22.40
2022-08-31T19:15:35.322Z,22.40
2022-08-31T19:18:05.502Z,22.30
2022-08-31T19:20:33.445Z,22.30
2022-08-31T19:23:00.813Z,22.20
2022-08-31T19:25:28.052Z,22.10
2022-08-31T19:27:55.773Z,22.10
2022-08-31T19:50:51.151Z,22.10
2022-08-31T19:53:21.936Z,21.90
2022-08-31T19:55:52.606Z,21.80
2022-08-31T19:58:26.485Z,21.80
2022-08-31T20:01:00.569Z,21.80
2022-08-31T20:03:28.109Z,21.70
2022-08-31T20:05:57.019Z,21.60
2022-08-31T20:08:23.857Z,21.60
2022-08-31T20:10:50.719Z,21.60
2022-08-31T20:13:25.271Z,21.60
2022-08-31T20:15:52.939Z,21.60
2022-08-31T20:18:20.742Z,21.60
2022-08-31T20:20:50.821Z,21.40
2022-08-31T20:23:21.189Z,21.40
2022-08-31T20:25:49.939Z,21.40
2022-08-31T20:28:25.450Z,21.40
2022-08-31T20:30:55.235Z,21.40
2022-08-31T20:33:22.789Z,21.30
2022-08-31T20:35:49.585Z,21.20
2022-08-31T21:11:13.757Z,21.10
2022-08-31T21:13:40.810Z,21.00
2022-08-31T21:16:07.788Z,21.00
2022-08-31T21:18:35.030Z,20.90
2022-08-31T21:21:06.583Z,20.80
2022-08-31T21:23:34.853Z,20.80
2022-08-31T21:26:01.828Z,20.90
2022-08-31T21:28:29.655Z,20.80
2022-08-31T21:31:16.486Z,20.90
2022-08-31T21:33:58.832Z,20.70
2022-08-31T21:36:26.742Z,20.70
2022-08-31T21:38:55.944Z,20.70
2022-08-31T21:41:26.605Z,20.60
2022-08-31T21:43:54.527Z,20.50
2022-08-31T21:46:24.946Z,20.50
2022-08-31T21:48:53.536Z,20.50
2022-08-31T21:51:27.373Z,20.50
2022-08-31T21:53:57.113Z,20.40
2022-08-31T21:56:28.276Z,20.50
2022-08-31T21:58:57.845Z,20.30
2022-08-31T22:01:26.826Z,20.40
2022-08-31T22:03:59.155Z,20.20
2022-08-31T22:06:31.143Z,20.20
2022-08-31T22:09:01.568Z,20.30
2022-08-31T22:11:31.505Z,20.20
2022-08-31T22:13:59.324Z,20.20
2022-08-31T22:16:27.764Z,20.20
2022-08-31T22:19:02.548Z,20.20
2022-08-31T22:21:34.163Z,20.10
2022-08-31T22:24:05.416Z,20.10
2022-08-31T22:26:35.226Z,20.10
2022-08-31T22:29:02.175Z,20.10
2022-08-31T22:31:29.271Z,20.10
2022-08-31T22:33:56.384Z,20.00
2022-08-31T22:36:31.665Z,20.00
2022-08-31T22:39:04.599Z,19.90
2022-08-31T22:41:33.066Z,20.00
2022-08-31T22:44:00.971Z,20.10
2022-08-31T22:46:28.466Z,20.00
2022-08-31T22:48:55.400Z,20.10
2022-08-31T22:51:22.587Z,20.00
2022-08-31T22:53:51.676Z,20.00
2022-08-31T22:56:22.112Z,19.80
2022-08-31T22:58:49.639Z,19.90
2022-08-31T23:01:23.565Z,19.90
2022-08-31T23:03:51.700Z,19.90
2022-08-31T23:06:20.236Z,19.90
2022-08-31T23:08:48.938Z,19.80
2022-08-31T23:11:19.034Z,19.90
2022-08-31T23:13:57.640Z,20.00
2022-08-31T23:16:35.499Z,19.90
2022-08-31T23:19:26.315Z,19.90
2022-08-31T23:21:56.793Z,19.80
2022-08-31T23:24:28.904Z,19.90
2022-08-31T23:27:03.033Z,19.90
2022-08-31T23:29:40.171Z,19.80
2022-08-31T23:32:11.247Z,19.70
2022-08-31T23:34:38.924Z,19.90
2022-08-31T23:37:10.636Z,19.90
2022-08-31T23:39:40.636Z,19.80
2022-08-31T23:42:11.220Z,19.80
2022-08-31T23:44:43.622Z,19.70
2022-08-31T23:47:14.219Z,19.50
2022-08-31T23:49:42.450Z,19.60
